Time;durP1;ratioP1;P1;durP2;ratioP2;P2;SDS_P1;SDS_P2;PMS_P1;PMS_P2;Temp;Humidity;BMP_temperature;BMP_pressure;BME280_temperature;BME280_humidity;BME280_pressure;Samples;Min_cycle;Max_cycle;Signal;HPM_P1;HPM_P2
2022/06/19 00:02:16;;;;;;;22.80;4.55;;;14.20;99.90;;;;;;5002804;28;20045;-78
2022/06/19 00:04:43;;;;;;;18.10;4.20;;;14.10;99.90;;;;;;4991863;28;20496;-78
2022/06/19 00:07:10;;;;;;;21.67;4.28;;;14.20;99.90;;;;;;5008520;28;20052;-78
2022/06/19 00:09:36;;;;;;;22.88;4.57;;;14.10;99.90;;;;;;5009162;28;20041;-78
2022/06/19 00:12:02;;;;;;;25.83;4.63;;;14.10;99.90;;;;;;4993238;28;20459;-78
2022/06/19 00:14:28;;;;;;;20.02;4.50;;;14.00;99.90;;;;;;5010262;28;20122;-78
2022/06/19 00:16:54;;;;;;;23.13;4.47;;;14.00;99.90;;;;;;4974375;28;20394;-78
2022/06/19 00:19:20;;;;;;;22.35;4.63;;;14.10;99.90;;;;;;5000041;28;20096;-78
2022/06/19 00:21:47;;;;;;;19.67;4.38;;;14.10;99.90;;;;;;5005113;28;20607;-78
2022/06/19 00:24:13;;;;;;;21.90;3.97;;;14.00;99.90;;;;;;4987064;28;20096;-78
2022/06/19 00:26:39;;;;;;;21.60;4.22;;;14.00;99.90;;;;;;4989671;28;20065;-78
2022/06/19 00:29:05;;;;;;;20.40;3.90;;;14.00;99.90;;;;;;5007733;28;20044;-78
2022/06/19 00:31:30;;;;;;;19.60;3.67;;;14.10;99.90;;;;;;5004592;28;20049;-78
2022/06/19 00:33:56;;;;;;;21.60;4.05;;;14.00;99.90;;;;;;4979821;28;20033;-78
2022/06/19 00:36:25;;;;;;;20.80;3.92;;;14.00;99.90;;;;;;4995025;28;20046;-78
2022/06/19 00:38:51;;;;;;;21.30;3.70;;;14.00;99.90;;;;;;4993853;28;20525;-78
2022/06/19 00:41:16;;;;;;;19.13;3.88;;;14.00;99.90;;;;;;4994262;28;20052;-78
2022/06/19 00:43:57;;;;;;;20.05;3.90;;;13.90;99.90;;;;;;5002859;28;20057;-78
2022/06/19 00:46:46;;;;;;;19.50;3.67;;;13.90;99.90;;;;;;5008037;28;20053;-78
2022/06/19 00:49:22;;;;;;;17.50;3.55;;;13.90;99.90;;;;;;5009139;28;20042;-78
2022/06/19 00:52:02;;;;;;;17.10;3.72;;;13.90;99.90;;;;;;5006449;28;20132;-79
2022/06/19 00:54:31;;;;;;;23.30;3.83;;;14.00;99.90;;;;;;5006928;28;20038;-78
2022/06/19 00:56:57;;;;;;;18.30;3.67;;;13.90;99.90;;;;;;4996906;28;20460;-79
2022/06/19 00:59:23;;;;;;;20.05;4.00;;;13.80;99.90;;;;;;5000326;28;20065;-78
2022/06/19 01:01:49;;;;;;;18.98;3.97;;;13.70;99.90;;;;;;4998831;28;20056;-78
2022/06/19 01:04:26;;;;;;;21.70;3.80;;;13.80;99.90;;;;;;4992753;28;20041;-78
2022/06/19 01:06:52;;;;;;;22.90;3.80;;;13.80;99.90;;;;;;4995685;28;20067;-77
2022/06/19 01:09:18;;;;;;;20.02;3.40;;;13.80;99.90;;;;;;5000268;28;20124;-77
2022/06/19 01:11:44;;;;;;;16.67;3.72;;;13.70;99.90;;;;;;4999491;28;20048;-79
2022/06/19 01:14:14;;;;;;;18.25;3.53;;;13.80;99.90;;;;;;5012675;28;20041;-77
2022/06/19 01:16:40;;;;;;;21.70;4.13;;;13.90;99.90;;;;;;5010810;28;20033;-77
2022/06/19 01:19:08;;;;;;;21.02;3.97;;;13.90;99.90;;;;;;4981314;28;20068;-77
2022/06/19 01:21:50;;;;;;;18.48;3.65;;;13.90;99.90;;;;;;5012655;28;20049;-76
2022/06/19 01:24:26;;;;;;;18.17;3.63;;;13.90;99.90;;;;;;5005813;28;20524;-77
2022/06/19 01:26:55;;;;;;;16.48;3.33;;;13.90;99.90;;;;;;5012486;28;20081;-77
2022/06/19 01:29:21;;;;;;;20.77;3.78;;;13.90;99.90;;;;;;5022761;28;20045;-76
2022/06/19 01:31:54;;;;;;;23.35;4.18;;;13.90;99.90;;;;;;4999866;28;20088;-78
2022/06/19 01:34:36;;;;;;;19.63;3.80;;;14.00;99.90;;;;;;5017432;28;20030;-76
2022/06/19 01:37:13;;;;;;;18.23;3.65;;;14.00;99.90;;;;;;5026417;28;20484;-76
2022/06/19 01:39:46;;;;;;;15.23;3.63;;;14.10;99.90;;;;;;5014039;28;20042;-77
2022/06/19 01:42:13;;;;;;;16.77;3.42;;;14.10;99.90;;;;;;5028550;28;20042;-77
2022/06/19 01:44:41;;;;;;;19.90;3.55;;;14.10;99.90;;;;;;5021119;28;20076;-76
2022/06/19 01:47:07;;;;;;;18.65;3.50;;;14.10;99.90;;;;;;5015101;28;20046;-76
2022/06/19 01:49:35;;;;;;;17.70;3.60;;;14.20;99.90;;;;;;5020442;28;20055;-78
2022/06/19 01:52:03;;;;;;;20.08;3.42;;;14.20;99.90;;;;;;5035159;28;20037;-78
2022/06/19 01:54:36;;;;;;;21.58;3.40;;;14.30;99.90;;;;;;5017693;28;20046;-79
2022/06/19 01:57:05;;;;;;;14.27;3.17;;;14.30;99.90;;;;;;5021017;28;20046;-79
2022/06/19 01:59:33;;;;;;;17.30;3.30;;;14.30;99.90;;;;;;5029436;28;20033;-77
2022/06/19 02:02:01;;;;;;;16.35;3.22;;;14.30;99.90;;;;;;5001189;28;20022;-76
2022/06/19 02:04:27;;;;;;;17.58;3.22;;;14.30;99.90;;;;;;5026570;28;20092;-78
2022/06/19 02:07:00;;;;;;;14.93;3.00;;;14.30;99.90;;;;;;5028874;28;20038;-79
2022/06/19 02:09:26;;;;;;;13.18;2.92;;;14.30;99.90;;;;;;5028367;28;20114;-77
2022/06/19 02:11:52;;;;;;;16.25;3.00;;;14.30;99.90;;;;;;5013449;28;20405;-78
2022/06/19 02:14:19;;;;;;;16.35;3.15;;;14.30;99.90;;;;;;4998594;28;20040;-78
2022/06/19 02:16:47;;;;;;;13.55;2.85;;;14.30;99.90;;;;;;4997183;28;20072;-78
2022/06/19 02:19:13;;;;;;;15.32;2.95;;;14.30;99.90;;;;;;4993876;28;20041;-79
2022/06/19 02:21:48;;;;;;;16.52;2.88;;;14.30;99.90;;;;;;5010892;28;20041;-78
2022/06/19 02:24:18;;;;;;;13.73;2.80;;;14.30;99.90;;;;;;5008503;28;20072;-79
2022/06/19 02:26:45;;;;;;;10.45;2.35;;;14.30;99.90;;;;;;4979656;28;20615;-78
2022/06/19 02:29:13;;;;;;;11.73;2.28;;;14.30;99.90;;;;;;5009193;28;20394;-79
2022/06/19 02:31:41;;;;;;;13.70;2.40;;;14.30;99.90;;;;;;5002540;28;20073;-78
2022/06/19 02:34:17;;;;;;;12.05;2.40;;;14.30;99.90;;;;;;4989143;28;20400;-79
2022/06/19 02:36:45;;;;;;;12.05;2.38;;;14.30;99.90;;;;;;4990065;28;20061;-79
2022/06/19 02:39:16;;;;;;;11.82;2.40;;;14.20;99.90;;;;;;4995576;28;20094;-79
2022/06/19 02:41:51;;;;;;;14.50;2.58;;;14.20;99.90;;;;;;4990167;28;20458;-79
2022/06/19 02:44:16;;;;;;;13.13;2.60;;;14.20;99.90;;;;;;5009984;28;20043;-79
2022/06/19 02:46:42;;;;;;;13.48;2.70;;;14.20;99.90;;;;;;4979045;28;20041;-79
2022/06/19 02:49:08;;;;;;;14.95;2.78;;;14.10;99.90;;;;;;4997754;28;20064;-79
2022/06/19 02:51:33;;;;;;;15.02;2.90;;;14.20;99.90;;;;;;4998235;28;20511;-79
2022/06/19 02:53:59;;;;;;;16.85;2.88;;;14.20;99.90;;;;;;4992613;28;20519;-79
2022/06/19 02:56:25;;;;;;;15.98;3.00;;;14.20;99.90;;;;;;4990254;28;20049;-79
2022/06/19 02:58:51;;;;;;;14.93;2.88;;;14.20;99.90;;;;;;5012635;28;20052;-79
2022/06/19 03:01:16;;;;;;;16.42;3.13;;;14.20;99.90;;;;;;4998206;28;20045;-79
2022/06/19 03:03:42;;;;;;;15.52;3.25;;;14.20;99.90;;;;;;4997353;28;20049;-79
2022/06/19 03:06:08;;;;;;;16.83;3.00;;;14.30;99.90;;;;;;4992306;28;20045;-79
2022/06/19 03:08:34;;;;;;;16.63;3.33;;;14.20;99.90;;;;;;5008961;28;20045;-78
2022/06/19 03:11:04;;;;;;;18.67;3.25;;;14.30;99.90;;;;;;5013148;28;20140;-79
2022/06/19 03:13:30;;;;;;;16.45;3.22;;;14.30;99.90;;;;;;5006588;28;20366;-79
2022/06/19 03:16:14;;;;;;;14.70;3.10;;;14.30;99.90;;;;;;5005570;28;20045;-78
2022/06/19 03:18:40;;;;;;;17.75;3.20;;;14.30;99.90;;;;;;4988322;28;20436;-79
2022/06/19 03:21:06;;;;;;;14.50;2.90;;;14.30;99.90;;;;;;5005443;28;20045;-79
2022/06/19 03:23:32;;;;;;;18.92;3.50;;;14.30;99.90;;;;;;5004116;28;20046;-79
2022/06/19 03:25:57;;;;;;;14.23;3.00;;;14.40;99.90;;;;;;4995870;28;20069;-79
2022/06/19 03:28:23;;;;;;;14.90;3.20;;;14.40;99.90;;;;;;5008511;28;20095;-79
2022/06/19 03:30:56;;;;;;;21.40;3.67;;;14.40;99.90;;;;;;4983626;28;20033;-79
2022/06/19 03:33:22;;;;;;;16.90;3.20;;;14.30;99.90;;;;;;4981068;28;20037;-78
2022/06/19 03:35:48;;;;;;;16.92;3.50;;;14.30;99.90;;;;;;5024128;28;20349;-78
2022/06/19 03:38:14;;;;;;;17.17;3.40;;;14.30;99.90;;;;;;4975129;28;20041;-79
2022/06/19 03:40:39;;;;;;;16.65;3.10;;;14.40;99.90;;;;;;4988295;28;20052;-79
2022/06/19 03:43:05;;;;;;;18.55;3.10;;;14.40;99.90;;;;;;4993974;28;20091;-78
2022/06/19 03:45:31;;;;;;;15.57;3.10;;;14.40;99.90;;;;;;4993339;28;20056;-79
2022/06/19 03:47:57;;;;;;;14.95;3.08;;;14.40;99.90;;;;;;4980869;28;20128;-78
2022/06/19 03:50:22;;;;;;;18.92;3.50;;;14.40;99.90;;;;;;4996054;28;20046;-76
2022/06/19 03:52:48;;;;;;;18.85;3.60;;;14.30;99.90;;;;;;5009226;28;20504;-77
2022/06/19 03:55:14;;;;;;;16.92;3.58;;;14.20;99.90;;;;;;4996837;28;20041;-77
2022/06/19 03:57:40;;;;;;;21.52;3.38;;;14.10;99.90;;;;;;4990532;28;20147;-77
2022/06/19 04:00:08;;;;;;;18.20;3.15;;;14.00;99.90;;;;;;4977407;28;20050;-77
2022/06/19 04:02:34;;;;;;;17.05;3.13;;;13.90;99.90;;;;;;4994432;28;20060;-76
2022/06/19 04:05:00;;;;;;;17.17;3.25;;;13.80;99.90;;;;;;5000558;28;20049;-77
2022/06/19 04:07:25;;;;;;;15.93;3.15;;;13.80;99.90;;;;;;4977885;28;20162;-77
2022/06/19 04:09:52;;;;;;;20.27;3.38;;;13.80;99.90;;;;;;4988358;28;20065;-77
2022/06/19 04:12:18;;;;;;;16.38;3.33;;;13.80;99.90;;;;;;5009287;28;20045;-77
2022/06/19 04:14:43;;;;;;;19.27;3.38;;;13.90;99.90;;;;;;4995956;28;20515;-78
2022/06/19 04:17:09;;;;;;;18.65;3.28;;;13.80;99.90;;;;;;4996036;28;20120;-77
2022/06/19 04:19:35;;;;;;;17.70;3.17;;;13.80;99.90;;;;;;4992981;28;20048;-77
2022/06/19 04:22:01;;;;;;;16.52;3.03;;;13.90;99.90;;;;;;5004781;28;20523;-76
2022/06/19 04:24:27;;;;;;;18.20;3.28;;;13.80;99.90;;;;;;4996824;28;20041;-76
2022/06/19 04:26:53;;;;;;;19.40;3.00;;;13.80;99.90;;;;;;4998129;28;20074;-77
2022/06/19 04:29:18;;;;;;;15.57;2.95;;;13.60;99.90;;;;;;5008586;28;20107;-77
2022/06/19 04:31:44;;;;;;;17.95;3.25;;;13.70;99.90;;;;;;5000650;28;20032;-78
2022/06/19 04:34:10;;;;;;;16.15;2.90;;;13.70;99.90;;;;;;4980949;28;20044;-76
2022/06/19 04:36:37;;;;;;;13.88;2.50;;;13.60;99.90;;;;;;5008850;28;20115;-76
2022/06/19 04:39:03;;;;;;;13.00;2.65;;;13.70;99.90;;;;;;4999213;28;20085;-77
2022/06/19 04:41:36;;;;;;;16.38;3.03;;;13.60;99.90;;;;;;5016752;28;20129;-77
2022/06/19 04:44:03;;;;;;;17.13;3.05;;;13.50;99.90;;;;;;4994428;28;20478;-77
2022/06/19 04:46:28;;;;;;;13.77;3.00;;;13.70;99.90;;;;;;5013393;28;20077;-77
2022/06/19 04:48:54;;;;;;;15.75;3.20;;;13.60;99.90;;;;;;5011116;28;20065;-77
2022/06/19 04:51:20;;;;;;;14.10;3.22;;;13.70;99.90;;;;;;5008553;28;20066;-76
2022/06/19 04:53:46;;;;;;;14.70;2.65;;;13.60;99.90;;;;;;5000959;28;20034;-77
2022/06/19 04:56:13;;;;;;;14.88;2.67;;;13.60;99.90;;;;;;5008818;28;20141;-77
2022/06/19 04:58:39;;;;;;;15.40;3.03;;;13.70;99.90;;;;;;5010976;28;20045;-78
2022/06/19 05:01:24;;;;;;;14.25;3.00;;;13.70;99.90;;;;;;5014651;28;20037;-77
2022/06/19 05:03:53;;;;;;;17.30;2.85;;;13.70;99.90;;;;;;5013995;28;20053;-78
2022/06/19 05:06:19;;;;;;;14.00;2.83;;;13.70;99.90;;;;;;4999976;28;20037;-77
2022/06/19 05:08:45;;;;;;;12.55;2.30;;;13.80;99.90;;;;;;4981877;28;20046;-77
2022/06/19 05:11:13;;;;;;;14.63;2.40;;;13.80;99.90;;;;;;4991070;28;20030;-77
2022/06/19 05:13:39;;;;;;;12.52;2.42;;;13.90;99.90;;;;;;5000671;28;20077;-77
2022/06/19 05:16:12;;;;;;;11.38;2.50;;;13.90;99.90;;;;;;4989760;28;20508;-77
2022/06/19 05:18:38;;;;;;;11.65;2.42;;;14.10;99.90;;;;;;5004817;28;20064;-77
2022/06/19 05:21:05;;;;;;;12.23;1.98;;;14.20;99.90;;;;;;5000594;28;20049;-77
2022/06/19 05:23:33;;;;;;;11.85;2.35;;;14.40;99.90;;;;;;5004851;28;20400;-77
2022/06/19 05:26:01;;;;;;;9.98;2.33;;;14.60;99.90;;;;;;5001587;28;20041;-77
2022/06/19 05:28:29;;;;;;;12.43;2.33;;;14.80;99.90;;;;;;5000652;28;20057;-77
2022/06/19 05:30:57;;;;;;;11.45;2.10;;;14.80;99.90;;;;;;4987183;28;20585;-77
2022/06/19 05:33:22;;;;;;;9.35;2.10;;;14.90;99.90;;;;;;4972473;28;20037;-77
2022/06/19 05:35:48;;;;;;;11.18;2.38;;;15.00;99.90;;;;;;4991993;28;20042;-77
2022/06/19 05:38:14;;;;;;;9.75;1.90;;;15.10;99.90;;;;;;4975249;28;20536;-77
2022/06/19 05:40:40;;;;;;;10.63;2.00;;;15.20;99.90;;;;;;4986966;28;20092;-78
2022/06/19 05:43:07;;;;;;;10.93;1.90;;;15.20;99.90;;;;;;4987171;28;20042;-77
2022/06/19 05:45:33;;;;;;;12.15;2.13;;;15.10;99.90;;;;;;4991883;28;20050;-78
2022/06/19 05:47:59;;;;;;;9.32;2.30;;;15.00;99.90;;;;;;4979782;28;20054;-77
2022/06/19 05:50:25;;;;;;;10.30;2.00;;;14.90;99.90;;;;;;4987535;28;20030;-77
2022/06/19 05:52:50;;;;;;;9.27;1.88;;;14.80;99.90;;;;;;4992842;28;20041;-77
2022/06/19 05:55:16;;;;;;;8.95;1.92;;;14.70;99.90;;;;;;4995525;28;20030;-77
2022/06/19 05:57:42;;;;;;;9.77;1.80;;;14.50;99.90;;;;;;5001234;28;20042;-77
2022/06/19 06:00:11;;;;;;;9.52;2.28;;;14.50;99.90;;;;;;4977495;28;20046;-77
2022/06/19 06:02:36;;;;;;;11.15;2.10;;;14.50;99.90;;;;;;4977016;28;20490;-77
2022/06/19 06:05:04;;;;;;;12.05;2.22;;;14.50;99.90;;;;;;5007060;28;20117;-77
2022/06/19 06:07:30;;;;;;;13.95;2.40;;;14.50;99.90;;;;;;4989130;28;20045;-77
2022/06/19 06:09:56;;;;;;;14.80;2.80;;;14.50;99.90;;;;;;4984107;28;20038;-77
2022/06/19 06:12:22;;;;;;;13.68;2.80;;;14.60;99.90;;;;;;5008156;28;20084;-78
2022/06/19 06:14:48;;;;;;;14.15;2.83;;;14.70;99.90;;;;;;5006445;28;20065;-77
2022/06/19 06:17:14;;;;;;;13.93;2.80;;;14.70;99.90;;;;;;4990888;28;20074;-77
2022/06/19 06:19:40;;;;;;;15.23;2.60;;;14.70;99.90;;;;;;5010085;28;20046;-78
2022/06/19 06:22:06;;;;;;;12.40;2.63;;;14.80;99.90;;;;;;5009810;28;20096;-77
2022/06/19 06:24:32;;;;;;;13.90;2.65;;;14.80;99.90;;;;;;4992954;28;20049;-77
2022/06/19 06:26:58;;;;;;;14.27;2.70;;;14.80;99.90;;;;;;4977871;28;20520;-77
2022/06/19 06:29:25;;;;;;;12.20;2.78;;;14.70;99.90;;;;;;4985287;28;20054;-77
2022/06/19 06:31:51;;;;;;;15.65;2.80;;;14.70;99.90;;;;;;5003995;28;20042;-78
2022/06/19 06:34:17;;;;;;;10.82;2.58;;;14.70;99.90;;;;;;5002257;28;20038;-77
2022/06/19 06:36:43;;;;;;;11.80;2.75;;;14.60;99.90;;;;;;5000619;28;20045;-77
2022/06/19 06:39:09;;;;;;;12.38;2.72;;;14.50;99.90;;;;;;4999219;28;20039;-77
2022/06/19 06:41:35;;;;;;;11.80;2.75;;;14.50;99.90;;;;;;4994554;28;20038;-77
2022/06/19 06:44:00;;;;;;;13.98;2.78;;;14.40;99.90;;;;;;4989246;28;20070;-78
2022/06/19 06:46:27;;;;;;;11.32;2.30;;;14.40;99.90;;;;;;4988787;28;20460;-78
2022/06/19 06:48:57;;;;;;;9.73;2.15;;;14.40;99.90;;;;;;4989346;28;20042;-78
2022/06/19 06:51:26;;;;;;;13.23;2.58;;;14.30;99.90;;;;;;5009423;28;20033;-78
2022/06/19 06:53:53;;;;;;;10.23;2.40;;;14.30;99.90;;;;;;4990617;28;20033;-77
2022/06/19 06:56:20;;;;;;;15.10;2.55;;;14.30;99.90;;;;;;5009736;28;20036;-78
2022/06/19 06:58:46;;;;;;;11.20;2.40;;;14.40;99.90;;;;;;5009187;28;20485;-78
2022/06/19 07:01:18;;;;;;;12.77;2.85;;;14.40;99.90;;;;;;4978294;28;20508;-78
2022/06/19 07:03:45;;;;;;;12.73;2.58;;;14.40;99.90;;;;;;5008593;28;20579;-78
2022/06/19 07:06:11;;;;;;;14.45;2.88;;;14.30;99.90;;;;;;5005734;28;20034;-78
2022/06/19 07:08:38;;;;;;;11.90;2.60;;;14.30;99.90;;;;;;5007371;28;20046;-77
2022/06/19 07:11:04;;;;;;;13.15;2.97;;;14.30;99.90;;;;;;5009554;28;20052;-77
2022/06/19 07:13:30;;;;;;;12.77;2.95;;;14.30;99.90;;;;;;4994248;28;20042;-78
2022/06/19 07:15:56;;;;;;;16.13;2.92;;;14.30;99.90;;;;;;5004341;28;20045;-78
2022/06/19 07:18:21;;;;;;;13.07;2.75;;;14.20;99.90;;;;;;4991422;28;20049;-78
2022/06/19 07:20:47;;;;;;;15.38;2.70;;;14.20;99.90;;;;;;4975791;28;20083;-77
2022/06/19 07:23:13;;;;;;;13.48;2.85;;;14.30;99.90;;;;;;4981231;28;20509;-77
2022/06/19 07:25:39;;;;;;;14.48;3.00;;;14.30;99.90;;;;;;4979081;28;20042;-78
2022/06/19 07:28:05;;;;;;;14.00;2.83;;;14.40;99.90;;;;;;4972168;28;20671;-78
2022/06/19 07:30:31;;;;;;;14.52;2.88;;;14.40;99.90;;;;;;4988108;28;20034;-78
2022/06/19 07:32:57;;;;;;;13.38;2.78;;;14.50;99.90;;;;;;4991027;28;20504;-78
2022/06/19 07:35:24;;;;;;;15.20;2.80;;;14.60;99.90;;;;;;5001010;28;20470;-78
2022/06/19 07:37:51;;;;;;;12.77;2.78;;;14.50;99.90;;;;;;4985107;28;20042;-78
2022/06/19 07:40:19;;;;;;;12.60;2.88;;;14.50;99.90;;;;;;5000357;28;20046;-78
2022/06/19 07:42:45;;;;;;;13.63;2.83;;;14.50;99.90;;;;;;5003483;28;20116;-77
2022/06/19 07:45:12;;;;;;;12.32;2.55;;;14.50;99.90;;;;;;4983582;28;20042;-78
2022/06/19 07:50:23;;;;;;;13.40;2.67;;;14.50;99.90;;;;;;5004078;28;20046;-78
2022/06/19 07:52:51;;;;;;;15.35;2.80;;;14.50;99.90;;;;;;4986909;28;20044;-78
2022/06/19 07:55:26;;;;;;;15.10;2.60;;;14.60;99.90;;;;;;4999109;28;20545;-78
2022/06/19 07:57:52;;;;;;;12.88;2.72;;;14.60;99.90;;;;;;4997452;28;20057;-78
2022/06/19 08:00:22;;;;;;;13.88;2.67;;;14.60;99.90;;;;;;5007456;28;20038;-77
2022/06/19 08:02:50;;;;;;;13.23;3.00;;;14.60;99.90;;;;;;5001422;28;20057;-78
2022/06/19 08:05:18;;;;;;;15.13;2.90;;;14.60;99.90;;;;;;4991143;28;20493;-77
2022/06/19 08:07:43;;;;;;;16.30;2.85;;;14.50;99.90;;;;;;5003115;28;20041;-77
2022/06/19 08:10:15;;;;;;;14.35;2.97;;;14.50;99.90;;;;;;5004378;28;20096;-78
2022/06/19 08:12:41;;;;;;;12.80;2.70;;;14.60;99.90;;;;;;5001212;28;20034;-77
2022/06/19 08:15:07;;;;;;;13.15;2.72;;;14.60;99.90;;;;;;4992236;28;20060;-78
2022/06/19 08:17:34;;;;;;;12.88;2.50;;;14.60;99.90;;;;;;4971272;28;20048;-78
2022/06/19 08:20:00;;;;;;;12.77;2.63;;;14.70;99.90;;;;;;4989623;28;20041;-78
2022/06/19 08:22:26;;;;;;;14.93;2.60;;;14.70;99.90;;;;;;5001483;28;20045;-78
2022/06/19 08:24:52;;;;;;;13.30;2.65;;;14.70;99.90;;;;;;4974554;28;20038;-77
2022/06/19 08:27:17;;;;;;;13.50;2.78;;;14.80;99.90;;;;;;5001106;28;20056;-78
2022/06/19 08:29:43;;;;;;;15.10;3.00;;;14.80;99.90;;;;;;4958617;28;20043;-78
2022/06/19 08:32:09;;;;;;;17.13;3.25;;;14.90;99.90;;;;;;4978883;28;20027;-78
2022/06/19 08:34:34;;;;;;;14.55;2.67;;;15.00;99.90;;;;;;4978888;28;20045;-78
2022/06/19 08:37:03;;;;;;;14.02;2.90;;;15.10;99.90;;;;;;4995741;28;20108;-78
2022/06/19 08:39:30;;;;;;;14.00;2.70;;;15.20;99.90;;;;;;4990611;28;20060;-78
2022/06/19 08:42:02;;;;;;;14.90;3.03;;;15.30;99.90;;;;;;4996266;28;20674;-78
2022/06/19 08:44:58;;;;;;;14.10;2.60;;;15.40;99.90;;;;;;5016145;28;20547;-78
2022/06/19 08:47:52;;;;;;;14.40;3.08;;;15.50;99.90;;;;;;4995886;28;20240;-78
2022/06/19 08:50:24;;;;;;;14.35;2.50;;;15.60;99.90;;;;;;5010805;28;20046;-78
2022/06/19 08:53:01;;;;;;;13.75;2.80;;;15.70;99.90;;;;;;4997114;28;20109;-78
2022/06/19 08:55:26;;;;;;;12.32;2.67;;;15.70;99.90;;;;;;4997891;28;20050;-78
2022/06/19 08:58:16;;;;;;;14.88;3.03;;;15.70;99.90;;;;;;4997639;28;20473;-78
2022/06/19 09:00:54;;;;;;;15.63;3.00;;;15.80;99.90;;;;;;4994439;28;20442;-78
2022/06/19 09:06:54;;;;;;;17.02;2.90;;;15.90;99.90;;;;;;4998062;28;20050;-78
2022/06/19 09:09:46;;;;;;;13.32;2.47;;;15.80;99.90;;;;;;4978280;28;20038;-78
2022/06/19 09:12:30;;;;;;;13.43;2.85;;;15.60;99.90;;;;;;5001745;28;20117;-78
2022/06/19 09:15:05;;;;;;;11.40;2.75;;;15.60;99.90;;;;;;4997835;28;20057;-78
2022/06/19 09:18:03;;;;;;;10.90;2.50;;;15.60;99.90;;;;;;4998134;28;20034;-78
2022/06/19 09:20:51;;;;;;;12.68;2.60;;;15.60;99.90;;;;;;4997350;28;20042;-78
2022/06/19 09:23:54;;;;;;;14.18;2.70;;;15.70;99.90;;;;;;4993265;28;20049;-78
2022/06/19 09:26:33;;;;;;;15.13;2.97;;;15.70;99.90;;;;;;5012564;28;20034;-78
2022/06/19 09:29:02;;;;;;;15.73;2.88;;;15.60;99.90;;;;;;4992684;28;20046;-78
2022/06/19 09:31:34;;;;;;;12.50;2.63;;;15.60;99.90;;;;;;5010169;28;20045;-78
2022/06/19 09:34:11;;;;;;;12.80;2.80;;;15.50;99.90;;;;;;5006060;28;20109;-78
2022/06/19 09:36:43;;;;;;;13.55;2.80;;;15.30;99.90;;;;;;5011444;28;20485;-78
2022/06/19 09:39:23;;;;;;;13.73;3.03;;;15.20;99.90;;;;;;5005338;28;20561;-77
2022/06/19 09:42:00;;;;;;;14.65;3.20;;;15.20;99.90;;;;;;5023949;28;20049;-78
2022/06/19 09:44:51;;;;;;;14.02;3.17;;;15.30;99.90;;;;;;5005080;28;20049;-78
2022/06/19 09:47:40;;;;;;;16.13;3.10;;;15.20;99.90;;;;;;5010187;28;20049;-78
2022/06/19 09:50:29;;;;;;;14.65;3.00;;;15.20;99.90;;;;;;4990789;28;20058;-78
2022/06/19 09:53:26;;;;;;;13.85;3.00;;;15.30;99.90;;;;;;5005453;28;20042;-78
2022/06/19 09:55:58;;;;;;;12.52;2.83;;;15.40;99.90;;;;;;5009072;28;20493;-78
2022/06/19 09:58:32;;;;;;;12.70;3.15;;;15.50;99.90;;;;;;5006748;28;20050;-78
2022/06/19 10:00:59;;;;;;;13.63;2.83;;;15.60;99.90;;;;;;5008524;28;20053;-78
2022/06/19 10:03:34;;;;;;;15.38;2.97;;;15.60;99.90;;;;;;4996846;28;20049;-78
2022/06/19 10:06:13;;;;;;;15.52;3.08;;;15.70;99.90;;;;;;4994759;28;20044;-78
2022/06/19 10:08:59;;;;;;;14.43;3.00;;;15.70;99.90;;;;;;5029109;28;20103;-78
2022/06/19 10:11:32;;;;;;;16.35;3.22;;;15.70;99.90;;;;;;5006830;28;20515;-78
2022/06/19 10:14:12;;;;;;;13.48;2.60;;;15.50;99.90;;;;;;4995092;28;20571;-78
2022/06/19 10:16:55;;;;;;;14.20;2.72;;;15.50;99.90;;;;;;5005173;28;20519;-78
2022/06/19 10:19:46;;;;;;;13.60;3.00;;;15.40;99.90;;;;;;5005452;28;21770;-78
2022/06/19 10:22:41;;;;;;;12.88;2.88;;;15.30;99.90;;;;;;5009407;28;20520;-77
2022/06/19 10:25:18;;;;;;;13.80;3.20;;;15.40;99.90;;;;;;5009574;28;20041;-78
2022/06/19 10:28:02;;;;;;;13.32;3.30;;;15.50;99.90;;;;;;5004803;28;20061;-78
2022/06/19 10:30:38;;;;;;;14.02;3.10;;;15.50;99.90;;;;;;4989650;28;20045;-78
2022/06/19 10:33:25;;;;;;;12.13;3.50;;;15.50;99.90;;;;;;4992283;28;20045;-78
2022/06/19 10:36:30;;;;;;;12.52;3.25;;;15.50;99.90;;;;;;5004786;28;20511;-78
2022/06/19 10:39:12;;;;;;;10.75;3.28;;;15.40;99.90;;;;;;4979228;28;20044;-78
2022/06/19 10:42:04;;;;;;;13.77;3.50;;;15.50;99.90;;;;;;5006224;28;20045;-78
2022/06/19 10:45:15;;;;;;;12.63;3.42;;;15.50;99.90;;;;;;5012250;28;20087;-78
2022/06/19 10:48:24;;;;;;;12.95;3.35;;;15.50;99.90;;;;;;4992266;28;20048;-78
2022/06/19 10:51:08;;;;;;;10.77;3.25;;;15.50;99.90;;;;;;5007119;28;20041;-78
2022/06/19 10:54:02;;;;;;;13.23;3.22;;;15.60;99.90;;;;;;5007426;28;20041;-78
2022/06/19 10:56:47;;;;;;;13.65;3.20;;;15.60;99.90;;;;;;5006890;28;20041;-79
2022/06/19 10:59:13;;;;;;;15.15;3.70;;;15.70;99.90;;;;;;4989829;28;20060;-78
2022/06/19 11:05:05;;;;;;;11.10;3.63;;;16.00;99.90;;;;;;5007758;28;20515;-78
2022/06/19 11:07:31;;;;;;;14.82;4.45;;;16.10;99.90;;;;;;4993292;28;20046;-78
2022/06/19 11:10:04;;;;;;;12.98;4.18;;;16.00;99.90;;;;;;4995786;28;20049;-78
2022/06/19 11:12:39;;;;;;;15.20;4.50;;;16.00;99.90;;;;;;5007655;28;20045;-78
2022/06/19 11:15:24;;;;;;;12.40;4.22;;;15.80;99.90;;;;;;4990382;28;20057;-78
2022/06/19 11:18:05;;;;;;;14.48;4.10;;;15.80;99.90;;;;;;5007795;28;20045;-78
2022/06/19 11:20:31;;;;;;;11.55;4.53;;;15.60;99.90;;;;;;5009510;28;20045;-78
2022/06/19 11:23:06;;;;;;;13.20;4.55;;;15.60;99.90;;;;;;4995931;28;20045;-78
2022/06/19 11:25:42;;;;;;;11.95;4.35;;;15.70;99.90;;;;;;5011017;28;20093;-79
2022/06/19 11:28:15;;;;;;;12.05;4.40;;;15.70;99.90;;;;;;5001423;28;20061;-78
2022/06/19 11:30:48;;;;;;;12.18;4.55;;;15.80;99.90;;;;;;4989238;28;20077;-79
2022/06/19 11:33:16;;;;;;;11.63;4.10;;;15.80;99.90;;;;;;4990173;28;20552;-79
2022/06/19 11:35:49;;;;;;;12.10;3.30;;;15.90;99.90;;;;;;5003549;28;20034;-78
2022/06/19 11:38:17;;;;;;;12.15;3.42;;;15.90;99.90;;;;;;5005035;28;20041;-78
2022/06/19 11:40:48;;;;;;;13.57;3.10;;;15.80;99.90;;;;;;5011013;28;20041;-78
2022/06/19 11:43:34;;;;;;;10.30;3.08;;;15.80;99.90;;;;;;5007248;28;20049;-79
2022/06/19 11:46:06;;;;;;;10.40;2.90;;;15.70;99.90;;;;;;4985622;28;20099;-78
2022/06/19 11:48:33;;;;;;;12.60;3.30;;;15.70;99.90;;;;;;5010605;28;20133;-78
2022/06/19 11:50:59;;;;;;;11.95;3.55;;;15.80;99.90;;;;;;5003594;28;20485;-78
2022/06/19 11:53:40;;;;;;;11.25;3.50;;;15.70;99.90;;;;;;4980726;28;20041;-78
2022/06/19 11:56:31;;;;;;;12.40;4.00;;;15.80;99.90;;;;;;5005820;28;20485;-78
2022/06/19 11:59:25;;;;;;;11.32;3.80;;;15.80;99.90;;;;;;5009259;28;20116;-78
2022/06/19 12:01:51;;;;;;;12.43;3.80;;;15.70;99.90;;;;;;4986583;28;20072;-78
2022/06/19 12:04:31;;;;;;;10.98;3.83;;;15.60;99.90;;;;;;5006537;28;20042;-79
2022/06/19 12:07:05;;;;;;;12.77;3.90;;;15.70;99.90;;;;;;5007284;28;20045;-78
2022/06/19 12:09:34;;;;;;;11.27;3.53;;;15.70;99.90;;;;;;4990435;28;20042;-78
2022/06/19 12:12:11;;;;;;;12.57;3.40;;;15.60;99.90;;;;;;5006204;28;20038;-78
2022/06/19 12:14:56;;;;;;;12.40;3.58;;;15.50;99.90;;;;;;5007861;28;20042;-78
2022/06/19 12:17:31;;;;;;;10.00;2.97;;;15.50;99.90;;;;;;5006597;28;20057;-78
2022/06/19 12:19:58;;;;;;;9.98;2.90;;;15.50;99.90;;;;;;5006871;28;20084;-78
2022/06/19 12:22:45;;;;;;;11.65;3.20;;;15.50;99.90;;;;;;5010040;28;20091;-78
2022/06/19 12:25:27;;;;;;;11.55;2.80;;;15.50;99.90;;;;;;4995389;28;20043;-78
2022/06/19 12:28:02;;;;;;;9.63;2.70;;;15.50;99.90;;;;;;5007314;28;20528;-78
2022/06/19 12:30:43;;;;;;;9.43;2.55;;;15.50;99.90;;;;;;4993268;28;20204;-77
2022/06/19 12:33:18;;;;;;;8.95;2.22;;;15.40;99.90;;;;;;5008683;28;20521;-77
2022/06/19 12:35:49;;;;;;;9.15;2.20;;;15.50;99.90;;;;;;5009666;28;20135;-77
2022/06/19 12:38:18;;;;;;;8.35;1.80;;;15.60;99.90;;;;;;5004677;28;20042;-77
2022/06/19 12:41:19;;;;;;;8.35;1.83;;;15.70;99.90;;;;;;5004635;28;20054;-77
2022/06/19 12:43:54;;;;;;;7.47;1.42;;;15.90;99.90;;;;;;5009449;28;20068;-77
2022/06/19 12:46:23;;;;;;;8.90;1.90;;;16.40;99.90;;;;;;5005959;28;20052;-77
2022/06/19 12:49:09;;;;;;;8.48;1.50;;;16.90;99.90;;;;;;4994567;28;20098;-77
2022/06/19 12:51:34;;;;;;;6.72;1.55;;;17.20;99.90;;;;;;5000355;28;20053;-77
2022/06/19 12:54:33;;;;;;;6.53;1.50;;;17.30;99.90;;;;;;5010106;28;20064;-77
2022/06/19 12:57:11;;;;;;;6.78;1.60;;;17.40;99.90;;;;;;5001206;28;20038;-77
2022/06/19 12:59:53;;;;;;;6.68;1.70;;;17.30;99.90;;;;;;4995625;28;20139;-77
2022/06/19 13:02:51;;;;;;;7.00;2.00;;;17.30;99.90;;;;;;4994689;28;20048;-77
2022/06/19 13:05:29;;;;;;;6.15;1.40;;;17.30;99.90;;;;;;4999853;28;20034;-77
2022/06/19 13:08:24;;;;;;;7.82;1.55;;;17.40;99.90;;;;;;5024521;28;20520;-76
2022/06/19 13:11:23;;;;;;;6.32;1.40;;;17.50;99.90;;;;;;5011365;28;20047;-77